createdAt,value
2023-01-08T00:00:33.117Z,8.40
2023-01-08T00:01:36.073Z,8.07
2023-01-08T00:02:38.554Z,7.70
2023-01-08T00:03:41.805Z,7.22
2023-01-08T00:04:44.901Z,8.25
2023-01-08T00:05:46.849Z,7.47
2023-01-08T00:06:50.770Z,7.40
2023-01-08T00:07:54.255Z,7.20
2023-01-08T00:08:57.182Z,7.00
2023-01-08T00:09:59.099Z,6.20
2023-01-08T00:11:02.158Z,8.38
2023-01-08T00:12:04.588Z,7.65
2023-01-08T00:13:08.495Z,7.40
2023-01-08T00:14:11.980Z,7.07
2023-01-08T00:15:13.976Z,7.55
2023-01-08T00:16:18.773Z,7.70
2023-01-08T00:17:20.841Z,7.13
2023-01-08T00:18:24.248Z,7.45
2023-01-08T00:19:26.628Z,7.15
2023-01-08T00:20:30.325Z,7.03
2023-01-08T00:21:34.580Z,6.85
2023-01-08T00:22:36.591Z,7.10
2023-01-08T00:23:40.973Z,7.13
2023-01-08T00:24:43.014Z,7.25
2023-01-08T00:25:46.574Z,7.97
2023-01-08T00:26:48.592Z,7.47
2023-01-08T00:27:51.827Z,7.70
2023-01-08T00:28:54.469Z,6.72
2023-01-08T00:29:57.389Z,7.97
2023-01-08T00:31:00.320Z,7.50
2023-01-08T00:32:04.939Z,8.02
2023-01-08T00:33:08.015Z,7.40
2023-01-08T00:34:10.106Z,7.75
2023-01-08T00:35:13.140Z,7.47
2023-01-08T00:36:17.549Z,8.13
2023-01-08T00:37:20.151Z,7.88
2023-01-08T00:38:27.500Z,7.15
2023-01-08T00:39:30.909Z,6.63
2023-01-08T00:40:35.196Z,7.82
2023-01-08T00:41:37.741Z,7.10
2023-01-08T00:42:40.774Z,7.15
2023-01-08T00:43:42.982Z,7.82
2023-01-08T00:44:45.931Z,7.65
2023-01-08T00:45:47.936Z,7.80
2023-01-08T00:46:50.893Z,7.38
2023-01-08T00:47:52.974Z,7.88
2023-01-08T00:48:55.886Z,8.00
2023-01-08T00:49:57.888Z,8.48
2023-01-08T00:51:03.998Z,7.40
2023-01-08T00:52:07.700Z,7.93
2023-01-08T00:53:10.773Z,7.25
2023-01-08T00:54:13.510Z,7.00
2023-01-08T00:55:18.210Z,7.50
2023-01-08T00:56:20.167Z,8.25
2023-01-08T00:57:23.150Z,7.70
2023-01-08T00:58:25.109Z,8.00
2023-01-08T00:59:28.042Z,7.25
2023-01-08T01:00:29.970Z,7.70
2023-01-08T01:01:33.167Z,7.95
2023-01-08T01:02:35.509Z,7.55
2023-01-08T01:03:38.471Z,7.13
2023-01-08T01:04:40.499Z,7.65
2023-01-08T01:05:43.397Z,7.60
2023-01-08T01:06:46.365Z,7.65
2023-01-08T01:07:48.378Z,9.00
2023-01-08T01:08:51.444Z,7.50
2023-01-08T01:09:53.494Z,8.90
2023-01-08T01:10:57.901Z,9.70
2023-01-08T01:11:59.873Z,8.95
2023-01-08T01:13:02.904Z,8.73
2023-01-08T01:14:04.887Z,8.60
2023-01-08T01:15:09.666Z,8.75
2023-01-08T01:16:11.711Z,8.88
2023-01-08T01:17:14.828Z,8.93
2023-01-08T01:18:16.974Z,8.57
2023-01-08T01:19:20.043Z,7.97
2023-01-08T01:20:23.785Z,7.90
2023-01-08T01:21:28.372Z,7.53
2023-01-08T01:22:30.303Z,9.07
2023-01-08T01:23:33.251Z,8.68
2023-01-08T01:24:35.345Z,8.10
2023-01-08T01:25:38.978Z,8.52
2023-01-08T01:26:42.459Z,8.27
2023-01-08T01:27:45.430Z,8.10
2023-01-08T01:28:48.891Z,8.63
2023-01-08T01:29:51.839Z,8.50
2023-01-08T01:30:55.210Z,8.77
2023-01-08T01:31:58.159Z,9.45
2023-01-08T01:33:00.099Z,8.73
2023-01-08T01:34:03.091Z,8.68
2023-01-08T01:35:06.051Z,8.00
2023-01-08T01:36:10.773Z,8.45
2023-01-08T01:37:13.791Z,9.35
2023-01-08T01:38:16.791Z,9.18
2023-01-08T01:39:19.905Z,9.02
2023-01-08T01:40:22.976Z,8.80
2023-01-08T01:41:27.974Z,8.90
2023-01-08T01:42:41.190Z,10.05
2023-01-08T01:43:44.339Z,9.65
2023-01-08T01:44:47.847Z,9.13
2023-01-08T01:45:49.995Z,10.15
2023-01-08T01:46:52.979Z,8.93
2023-01-08T01:47:58.279Z,10.73
2023-01-08T01:49:07.102Z,10.15
2023-01-08T01:50:14.612Z,9.85
2023-01-08T01:51:17.606Z,9.20
2023-01-08T01:52:22.347Z,9.05
2023-01-08T01:53:27.339Z,9.75
2023-01-08T01:54:31.830Z,9.05
2023-01-08T01:55:35.696Z,9.93
2023-01-08T01:56:38.913Z,10.23
2023-01-08T01:57:45.023Z,9.40
2023-01-08T01:58:47.955Z,9.75
2023-01-08T01:59:49.978Z,8.98
2023-01-08T02:00:54.679Z,8.93
2023-01-08T02:01:58.164Z,8.90
2023-01-08T02:03:01.704Z,9.65
2023-01-08T02:04:04.817Z,8.55
2023-01-08T02:05:08.502Z,9.15
2023-01-08T02:06:20.532Z,9.95
2023-01-08T02:07:27.430Z,9.25
2023-01-08T02:08:36.023Z,8.88
2023-01-08T02:09:48.067Z,9.30
2023-01-08T02:10:55.254Z,10.00
2023-01-08T02:12:17.657Z,9.75
2023-01-08T02:13:28.207Z,10.00
2023-01-08T02:14:37.249Z,9.35
2023-01-08T02:15:46.493Z,8.15
2023-01-08T02:16:55.616Z,9.32
2023-01-08T02:18:03.481Z,8.25
2023-01-08T02:19:17.826Z,8.88
2023-01-08T02:20:23.504Z,10.10
2023-01-08T02:21:38.237Z,8.43
2023-01-08T02:23:01.059Z,10.00
2023-01-08T02:24:12.938Z,9.43
2023-01-08T02:25:21.689Z,9.75
2023-01-08T02:26:28.876Z,9.27
2023-01-08T02:27:34.263Z,8.90
2023-01-08T02:28:41.990Z,8.88
2023-01-08T02:29:44.958Z,8.90
2023-01-08T02:30:48.693Z,9.23
2023-01-08T02:31:50.876Z,8.90
2023-01-08T02:32:53.834Z,8.73
2023-01-08T02:33:55.924Z,8.82
2023-01-08T02:34:58.858Z,8.85
2023-01-08T02:36:31.912Z,9.07
2023-01-08T02:37:35.319Z,8.07
2023-01-08T02:38:39.616Z,9.05
2023-01-08T02:40:00.639Z,7.88
2023-01-08T02:41:08.011Z,8.63
2023-01-08T02:42:17.555Z,8.90
2023-01-08T02:43:27.035Z,8.55
2023-01-08T02:44:39.391Z,7.97
2023-01-08T02:45:46.371Z,7.95
2023-01-08T02:46:52.874Z,8.05
2023-01-08T02:48:00.132Z,8.75
2023-01-08T02:49:05.563Z,7.50
2023-01-08T02:50:16.466Z,7.20
2023-01-08T02:51:24.138Z,8.07
2023-01-08T02:52:30.538Z,8.93
2023-01-08T02:53:36.476Z,8.05
2023-01-08T02:54:41.039Z,8.02
2023-01-08T02:55:48.501Z,8.20
2023-01-08T02:56:57.641Z,8.18
2023-01-08T02:58:03.013Z,8.23
2023-01-08T02:59:07.510Z,8.90
2023-01-08T03:00:12.087Z,8.23
2023-01-08T03:01:20.418Z,9.02
2023-01-08T03:02:23.885Z,8.35
2023-01-08T03:03:28.520Z,8.35
2023-01-08T03:04:36.911Z,7.97
2023-01-08T03:05:42.801Z,8.35
2023-01-08T03:06:45.547Z,8.07
2023-01-08T03:07:48.501Z,6.95
2023-01-08T03:08:52.903Z,7.95
2023-01-08T03:09:56.534Z,7.72
2023-01-08T03:11:03.783Z,7.20
2023-01-08T03:12:13.840Z,7.53
2023-01-08T03:13:25.153Z,7.97
2023-01-08T03:14:32.674Z,6.65
2023-01-08T03:15:41.271Z,8.00
2023-01-08T03:16:47.962Z,7.53
2023-01-08T03:17:53.934Z,7.13
2023-01-08T03:19:00.699Z,7.10
2023-01-08T03:20:09.813Z,8.30
2023-01-08T03:21:14.081Z,6.70
2023-01-08T03:22:17.922Z,6.95
2023-01-08T03:23:23.875Z,6.80
2023-01-08T03:24:29.423Z,6.15
2023-01-08T03:25:32.708Z,6.90
2023-01-08T03:26:37.869Z,6.85
2023-01-08T03:27:44.027Z,6.80
2023-01-08T03:28:51.800Z,6.07
2023-01-08T03:29:56.876Z,6.30
2023-01-08T03:31:00.239Z,5.78
2023-01-08T03:32:06.736Z,6.25
2023-01-08T03:33:10.693Z,6.78
2023-01-08T03:34:15.457Z,6.05
2023-01-08T03:35:23.006Z,6.85
2023-01-08T03:36:29.443Z,6.38
2023-01-08T03:37:38.209Z,6.63
2023-01-08T03:38:45.065Z,6.22
2023-01-08T03:39:55.209Z,5.68
2023-01-08T03:41:01.395Z,6.55
2023-01-08T03:42:09.996Z,6.00
2023-01-08T03:43:12.074Z,5.90
2023-01-08T03:44:16.586Z,5.63
2023-01-08T03:45:18.985Z,6.28
2023-01-08T03:46:25.161Z,5.70
2023-01-08T03:47:29.243Z,5.90
2023-01-08T03:48:33.801Z,5.95
2023-01-08T03:49:37.754Z,5.90
2023-01-08T03:50:41.553Z,5.40
2023-01-08T03:51:45.269Z,5.78
2023-01-08T03:52:48.226Z,5.35
2023-01-08T03:53:53.580Z,5.97
2023-01-08T03:54:57.591Z,5.40
2023-01-08T03:55:59.622Z,6.05
2023-01-08T03:57:03.067Z,5.18
2023-01-08T03:58:05.031Z,5.30
2023-01-08T03:59:07.964Z,5.35
2023-01-08T04:00:13.596Z,5.07
2023-01-08T04:01:15.714Z,5.25
2023-01-08T04:02:19.072Z,5.32
2023-01-08T04:03:21.077Z,5.25
2023-01-08T04:04:24.085Z,5.65
2023-01-08T04:05:26.059Z,5.80
2023-01-08T04:06:29.040Z,5.68
2023-01-08T04:07:31.065Z,6.15
2023-01-08T04:08:34.028Z,5.90
2023-01-08T04:09:35.950Z,5.68
2023-01-08T04:10:39.106Z,5.57
2023-01-08T04:11:41.085Z,5.30
2023-01-08T04:12:44.797Z,5.80
2023-01-08T04:13:47.441Z,5.43
2023-01-08T04:14:50.457Z,5.95
2023-01-08T04:15:53.857Z,5.78
2023-01-08T04:16:56.811Z,4.90
2023-01-08T04:17:58.733Z,5.70
2023-01-08T04:19:01.619Z,5.53
2023-01-08T04:20:04.279Z,5.05
2023-01-08T04:21:07.399Z,4.80
2023-01-08T04:22:10.415Z,5.45
2023-01-08T04:23:13.412Z,4.63
2023-01-08T04:24:15.523Z,5.85
2023-01-08T04:25:19.478Z,6.22
2023-01-08T04:26:21.445Z,4.80
2023-01-08T04:27:24.384Z,5.40
2023-01-08T04:28:26.428Z,6.22
2023-01-08T04:29:29.435Z,5.60
2023-01-08T04:30:31.774Z,5.15
2023-01-08T04:31:36.088Z,5.13
2023-01-08T04:32:38.061Z,5.00
2023-01-08T04:33:41.118Z,4.50
2023-01-08T04:34:43.060Z,5.78
2023-01-08T04:35:46.035Z,4.38
2023-01-08T04:36:49.091Z,4.35
2023-01-08T04:37:51.014Z,5.15
2023-01-08T04:38:53.913Z,5.38
2023-01-08T04:39:55.908Z,5.20
2023-01-08T04:40:59.390Z,5.00
2023-01-08T04:42:01.339Z,4.88
2023-01-08T04:43:04.307Z,4.97
2023-01-08T04:44:06.613Z,4.63
2023-01-08T04:45:10.682Z,4.68
2023-01-08T04:46:12.714Z,4.78
2023-01-08T04:47:17.016Z,5.13
2023-01-08T04:48:18.992Z,5.60
2023-01-08T04:49:22.004Z,4.47
2023-01-08T04:50:24.128Z,4.80
2023-01-08T04:51:27.379Z,4.78
2023-01-08T04:52:29.603Z,4.88
2023-01-08T04:53:36.467Z,5.28
2023-01-08T04:54:38.423Z,4.57
2023-01-08T04:55:41.342Z,5.50
2023-01-08T04:56:43.297Z,5.00
2023-01-08T04:57:46.230Z,4.80
2023-01-08T04:58:48.167Z,5.85
2023-01-08T04:59:51.175Z,5.88
2023-01-08T05:00:53.116Z,5.30
2023-01-08T05:01:57.424Z,5.25
2023-01-08T05:03:00.946Z,6.05
2023-01-08T05:04:05.798Z,5.88
2023-01-08T05:05:08.943Z,5.63
2023-01-08T05:06:12.315Z,5.40
2023-01-08T05:07:14.353Z,5.57
2023-01-08T05:08:17.323Z,5.50
2023-01-08T05:09:20.297Z,5.47
2023-01-08T05:10:22.417Z,5.00
2023-01-08T05:11:25.646Z,5.10
2023-01-08T05:12:27.726Z,5.50
2023-01-08T05:13:31.170Z,4.70
2023-01-08T05:14:33.137Z,5.18
2023-01-08T05:15:36.107Z,4.68
2023-01-08T05:16:38.113Z,5.53
2023-01-08T05:17:41.037Z,4.57
2023-01-08T05:18:44.564Z,4.45
2023-01-08T05:19:47.531Z,6.20
2023-01-08T05:20:49.461Z,5.13
2023-01-08T05:21:52.375Z,5.47
2023-01-08T05:22:54.786Z,5.30
2023-01-08T05:23:57.712Z,5.95
2023-01-08T05:24:59.666Z,5.45
2023-01-08T05:26:05.396Z,5.30
2023-01-08T05:27:08.357Z,5.10
2023-01-08T05:28:10.307Z,5.68
2023-01-08T05:29:13.298Z,4.85
2023-01-08T05:30:15.481Z,5.43
2023-01-08T05:31:18.572Z,5.10
2023-01-08T05:32:20.627Z,5.78
2023-01-08T05:33:24.087Z,4.55
2023-01-08T05:34:27.649Z,5.40
2023-01-08T05:35:30.655Z,4.43
2023-01-08T05:36:32.598Z,5.40
2023-01-08T05:37:36.053Z,5.20
2023-01-08T05:38:38.106Z,6.38
2023-01-08T05:39:41.038Z,5.38
2023-01-08T05:40:43.016Z,5.75
2023-01-08T05:41:45.999Z,5.60
2023-01-08T05:42:47.967Z,6.15
2023-01-08T05:43:50.919Z,5.30
2023-01-08T05:44:52.931Z,4.80
2023-01-08T05:45:55.997Z,5.57
2023-01-08T05:46:58.090Z,5.40
2023-01-08T05:48:01.327Z,6.07
2023-01-08T05:49:04.278Z,5.63
2023-01-08T05:50:08.315Z,5.82
2023-01-08T05:51:11.286Z,5.65
2023-01-08T05:52:13.319Z,6.00
2023-01-08T05:53:16.279Z,6.40
2023-01-08T05:54:18.255Z,5.60
2023-01-08T05:55:21.207Z,7.35
2023-01-08T05:56:23.171Z,5.97
2023-01-08T05:57:26.116Z,6.40
2023-01-08T05:58:28.456Z,5.80
2023-01-08T05:59:31.433Z,6.25
2023-01-08T06:00:34.302Z,5.75
2023-01-08T06:01:37.286Z,6.05
2023-01-08T06:02:39.422Z,5.45
2023-01-08T06:03:42.484Z,5.60
2023-01-08T06:04:44.428Z,5.90
2023-01-08T06:05:48.753Z,5.85
2023-01-08T06:06:50.719Z,5.80
2023-01-08T06:07:53.657Z,5.47
2023-01-08T06:08:56.679Z,5.28
2023-01-08T06:09:58.636Z,6.45
2023-01-08T06:11:01.832Z,5.72
2023-01-08T06:12:04.130Z,6.15
2023-01-08T06:13:08.754Z,5.82
2023-01-08T06:14:10.762Z,5.47
2023-01-08T06:15:13.835Z,5.55
2023-01-08T06:16:17.532Z,5.53
2023-01-08T06:17:19.522Z,5.38
2023-01-08T06:18:22.492Z,5.20
2023-01-08T06:19:24.733Z,5.40
2023-01-08T06:20:27.690Z,4.97
2023-01-08T06:21:32.391Z,5.85
2023-01-08T06:22:34.604Z,5.18
2023-01-08T06:23:37.550Z,5.30
2023-01-08T06:24:39.800Z,5.00
2023-01-08T06:25:42.771Z,5.70
2023-01-08T06:26:44.762Z,5.82
2023-01-08T06:27:52.113Z,4.85
2023-01-08T06:28:54.050Z,4.93
2023-01-08T06:29:57.485Z,5.35
2023-01-08T06:30:59.990Z,6.07
2023-01-08T06:32:02.959Z,5.60
2023-01-08T06:33:04.972Z,5.38
2023-01-08T06:34:07.911Z,6.63
2023-01-08T06:35:10.467Z,5.15
2023-01-08T06:36:13.558Z,6.43
2023-01-08T06:37:17.892Z,7.28
2023-01-08T06:38:21.180Z,6.82
2023-01-08T06:39:23.141Z,6.07
2023-01-08T06:40:26.082Z,5.65
2023-01-08T06:41:28.017Z,5.75
2023-01-08T06:42:31.040Z,5.72
2023-01-08T06:43:33.655Z,4.93
2023-01-08T06:44:39.345Z,5.75
2023-01-08T06:45:42.848Z,5.25
2023-01-08T06:46:44.908Z,5.20
2023-01-08T06:47:47.956Z,4.93
2023-01-08T06:48:50.892Z,6.22
2023-01-08T06:49:52.814Z,5.32
2023-01-08T06:50:56.289Z,5.53
2023-01-08T06:51:58.256Z,5.80
2023-01-08T06:53:02.767Z,6.25
2023-01-08T06:54:04.863Z,5.80
2023-01-08T06:55:08.720Z,5.65
2023-01-08T06:56:11.070Z,5.35
2023-01-08T06:57:14.055Z,5.30
2023-01-08T06:58:16.013Z,6.28
2023-01-08T06:59:19.379Z,6.60
2023-01-08T07:00:22.452Z,6.40
2023-01-08T07:01:25.473Z,6.78
2023-01-08T07:02:27.631Z,6.30
2023-01-08T07:03:30.996Z,6.47
2023-01-08T07:04:32.991Z,5.82
2023-01-08T07:05:36.855Z,5.65
2023-01-08T07:06:38.805Z,6.13
2023-01-08T07:07:41.689Z,5.65
2023-01-08T07:08:45.235Z,6.10
2023-01-08T07:09:48.209Z,6.45
2023-01-08T07:10:50.315Z,6.28
2023-01-08T07:11:53.264Z,6.00
2023-01-08T07:12:55.207Z,5.95
2023-01-08T07:13:58.106Z,6.28
2023-01-08T07:15:00.074Z,5.80
2023-01-08T07:16:07.524Z,6.70
2023-01-08T07:17:09.520Z,6.93
2023-01-08T07:18:13.556Z,6.03
2023-01-08T07:19:15.550Z,6.00
2023-01-08T07:20:18.623Z,6.68
2023-01-08T07:21:22.559Z,5.97
2023-01-08T07:22:25.862Z,5.20
2023-01-08T07:23:27.818Z,5.55
2023-01-08T07:24:32.143Z,5.18
2023-01-08T07:25:34.111Z,5.25
2023-01-08T07:26:39.580Z,5.70
2023-01-08T07:27:42.590Z,5.35
2023-01-08T07:28:44.706Z,5.20
2023-01-08T07:29:47.645Z,4.95
2023-01-08T07:30:49.580Z,5.22
2023-01-08T07:31:52.564Z,5.80
2023-01-08T07:32:57.687Z,6.03
2023-01-08T07:34:00.603Z,6.00
2023-01-08T07:35:02.959Z,5.60
2023-01-08T07:36:06.756Z,5.22
2023-01-08T07:37:08.718Z,5.50
2023-01-08T07:38:12.066Z,5.40
2023-01-08T07:39:14.998Z,6.20
2023-01-08T07:40:18.400Z,4.93
2023-01-08T07:41:21.386Z,5.10
2023-01-08T07:42:23.307Z,5.15
2023-01-08T07:43:26.394Z,5.20
2023-01-08T07:44:29.335Z,4.55
2023-01-08T07:45:31.575Z,5.10
2023-01-08T07:46:34.644Z,4.40
2023-01-08T07:47:36.663Z,5.35
2023-01-08T07:48:39.652Z,4.85
2023-01-08T07:49:41.616Z,4.88
2023-01-08T07:50:45.195Z,4.13
2023-01-08T07:51:50.460Z,4.72
2023-01-08T07:52:52.647Z,4.70
2023-01-08T07:53:56.568Z,4.35
2023-01-08T07:54:58.564Z,5.30
2023-01-08T07:56:04.676Z,4.82
2023-01-08T07:57:06.620Z,5.13
2023-01-08T07:58:10.841Z,4.25
2023-01-08T07:59:13.780Z,4.70
2023-01-08T08:00:16.204Z,4.30
2023-01-08T08:01:19.314Z,4.43
2023-01-08T08:02:21.375Z,4.85
2023-01-08T08:03:25.146Z,4.50
2023-01-08T08:04:27.137Z,4.82
2023-01-08T08:05:30.109Z,5.28
2023-01-08T08:06:33.015Z,4.85
2023-01-08T08:07:36.131Z,5.43
2023-01-08T08:08:40.720Z,4.72
2023-01-08T08:09:44.956Z,5.30
2023-01-08T08:10:47.412Z,4.70
2023-01-08T08:11:51.780Z,5.25
2023-01-08T08:12:53.768Z,4.35
2023-01-08T08:13:56.853Z,4.93
2023-01-08T08:14:58.796Z,4.90
2023-01-08T08:16:05.268Z,4.60
2023-01-08T08:17:08.341Z,5.28
2023-01-08T08:18:11.414Z,5.15
2023-01-08T08:19:13.581Z,4.72
2023-01-08T08:20:17.131Z,4.63
2023-01-08T08:21:20.047Z,4.70
2023-01-08T08:22:23.154Z,5.47
2023-01-08T08:23:26.500Z,4.10
2023-01-08T08:24:29.457Z,4.20
2023-01-08T08:25:32.805Z,4.28
2023-01-08T08:26:35.726Z,4.15
2023-01-08T08:27:40.030Z,4.57
2023-01-08T08:28:43.051Z,4.60
2023-01-08T08:29:44.981Z,4.63
2023-01-08T08:30:48.045Z,4.15
2023-01-08T08:31:50.076Z,4.65
2023-01-08T08:32:52.998Z,4.85
2023-01-08T08:33:55.964Z,5.20
2023-01-08T08:34:57.877Z,4.72
2023-01-08T08:36:00.821Z,5.45
2023-01-08T08:37:02.737Z,5.68
2023-01-08T08:38:06.108Z,5.32
2023-01-08T08:39:09.202Z,4.63
2023-01-08T08:40:11.976Z,4.90
2023-01-08T08:41:14.922Z,4.88
2023-01-08T08:42:17.872Z,4.25
2023-01-08T08:43:22.223Z,4.72
2023-01-08T08:44:24.214Z,5.00
2023-01-08T08:45:27.898Z,5.22
2023-01-08T08:46:31.010Z,6.10
2023-01-08T08:47:32.956Z,5.60
2023-01-08T08:48:35.908Z,5.78
2023-01-08T08:49:37.835Z,5.18
2023-01-08T08:50:40.995Z,5.43
2023-01-08T08:51:43.016Z,5.15
2023-01-08T08:52:45.944Z,5.28
2023-01-08T08:53:48.905Z,6.05
2023-01-08T08:54:51.836Z,5.00
2023-01-08T08:55:54.762Z,4.97
2023-01-08T08:56:57.735Z,5.22
2023-01-08T08:58:05.554Z,4.60
2023-01-08T08:59:13.018Z,5.90
2023-01-08T09:00:17.133Z,5.30
2023-01-08T09:01:19.156Z,7.05
2023-01-08T09:02:22.355Z,6.68
2023-01-08T09:03:25.428Z,7.63
2023-01-08T09:04:31.379Z,7.38
2023-01-08T09:05:36.098Z,7.07
2023-01-08T09:06:39.157Z,6.93
2023-01-08T09:07:42.085Z,5.68
2023-01-08T09:08:45.043Z,6.57
2023-01-08T09:09:48.003Z,5.50
2023-01-08T09:10:50.957Z,5.07
2023-01-08T09:11:54.350Z,5.60
2023-01-08T09:12:56.330Z,5.65
2023-01-08T09:13:59.306Z,6.47
2023-01-08T09:15:03.650Z,6.32
2023-01-08T09:16:07.181Z,5.20
2023-01-08T09:17:10.471Z,5.60
2023-01-08T09:18:15.828Z,5.80
2023-01-08T09:19:18.007Z,6.70
2023-01-08T09:20:21.003Z,6.63
2023-01-08T09:21:23.927Z,5.78
2023-01-08T09:22:26.871Z,5.32
2023-01-08T09:23:29.889Z,6.25
2023-01-08T09:24:32.348Z,5.30
2023-01-08T09:25:35.349Z,7.28
2023-01-08T09:26:37.376Z,5.65
2023-01-08T09:27:40.361Z,6.20
2023-01-08T09:28:43.342Z,6.32
2023-01-08T09:29:46.239Z,8.02
2023-01-08T09:30:50.567Z,5.25
2023-01-08T09:31:52.715Z,5.85
2023-01-08T09:32:59.704Z,5.25
2023-01-08T09:34:03.759Z,4.50
2023-01-08T09:35:07.176Z,5.65
2023-01-08T09:36:10.936Z,5.32
2023-01-08T09:37:13.862Z,11.52
2023-01-08T09:38:15.774Z,19.10
2023-01-08T09:39:18.814Z,18.30
2023-01-08T09:40:23.395Z,17.85
2023-01-08T09:41:28.513Z,12.35
2023-01-08T09:42:32.776Z,9.65
2023-01-08T09:43:37.435Z,7.15
2023-01-08T09:44:43.835Z,7.13
2023-01-08T09:45:52.271Z,14.02
2023-01-08T09:46:56.600Z,15.02
2023-01-08T09:48:02.252Z,9.02
2023-01-08T09:49:07.845Z,6.60
2023-01-08T09:50:14.991Z,6.20
2023-01-08T09:51:18.616Z,5.68
2023-01-08T09:52:22.125Z,6.55
2023-01-08T09:53:25.973Z,5.80
2023-01-08T09:54:28.968Z,6.25
2023-01-08T09:55:35.114Z,8.10
2023-01-08T09:56:37.784Z,7.47
2023-01-08T09:57:40.887Z,7.18
2023-01-08T09:58:46.500Z,5.32
2023-01-08T09:59:50.388Z,5.75
2023-01-08T10:00:56.039Z,5.88
2023-01-08T10:01:59.389Z,4.85
2023-01-08T10:03:02.597Z,5.68
2023-01-08T10:04:08.078Z,5.55
2023-01-08T10:05:13.395Z,5.30
2023-01-08T10:06:18.494Z,5.88
2023-01-08T10:07:22.369Z,5.28
2023-01-08T10:08:25.289Z,6.85
2023-01-08T10:09:29.511Z,6.40
2023-01-08T10:10:33.544Z,5.80
2023-01-08T10:11:42.043Z,5.43
2023-01-08T10:12:44.357Z,6.00
2023-01-08T10:13:52.000Z,6.80
2023-01-08T10:14:57.029Z,6.57
2023-01-08T10:16:00.398Z,5.78
2023-01-08T10:17:11.372Z,6.57
2023-01-08T10:18:16.596Z,5.55
2023-01-08T10:19:18.563Z,6.10
2023-01-08T10:20:24.103Z,5.10
2023-01-08T10:21:31.695Z,6.65
2023-01-08T10:22:33.889Z,6.85
2023-01-08T10:23:36.835Z,6.53
2023-01-08T10:24:40.491Z,6.45
2023-01-08T10:25:52.402Z,5.72
2023-01-08T10:27:05.792Z,5.85
2023-01-08T10:28:20.694Z,5.90
2023-01-08T10:29:23.610Z,6.10
2023-01-08T10:30:34.686Z,5.72
2023-01-08T10:31:47.263Z,7.50
2023-01-08T10:32:54.572Z,5.95
2023-01-08T10:33:57.345Z,5.68
2023-01-08T10:35:04.360Z,6.25
2023-01-08T10:36:10.503Z,6.82
2023-01-08T10:37:26.950Z,5.47
2023-01-08T10:38:33.878Z,6.47
2023-01-08T10:39:37.527Z,5.70
2023-01-08T10:40:42.240Z,7.13
2023-01-08T10:41:45.476Z,6.28
2023-01-08T10:42:48.108Z,6.97
2023-01-08T10:43:56.230Z,6.07
2023-01-08T10:45:02.004Z,6.55
2023-01-08T10:46:07.634Z,7.05
2023-01-08T10:47:19.346Z,6.30
2023-01-08T10:48:21.602Z,5.72
2023-01-08T10:49:31.963Z,5.90
2023-01-08T10:50:36.005Z,7.20
2023-01-08T10:51:48.333Z,6.85
2023-01-08T10:52:55.875Z,6.93
2023-01-08T10:54:02.157Z,6.25
2023-01-08T10:55:23.121Z,6.47
2023-01-08T10:56:28.004Z,6.22
2023-01-08T10:57:30.940Z,6.28
2023-01-08T10:58:42.987Z,6.40
2023-01-08T10:59:46.093Z,6.32
2023-01-08T11:00:49.099Z,6.43
2023-01-08T11:01:53.850Z,6.00
2023-01-08T11:03:01.817Z,6.13
2023-01-08T11:04:07.117Z,5.10
2023-01-08T11:05:11.550Z,5.88
2023-01-08T11:06:18.639Z,6.30
2023-01-08T11:07:24.429Z,6.05
2023-01-08T11:08:27.427Z,6.28
2023-01-08T11:09:32.841Z,6.55
2023-01-08T11:10:37.715Z,6.57
2023-01-08T11:11:40.698Z,5.72
2023-01-08T11:12:43.797Z,6.78
2023-01-08T11:13:56.163Z,6.43
2023-01-08T11:14:59.148Z,6.30
2023-01-08T11:16:05.581Z,6.38
2023-01-08T11:17:11.639Z,5.72
2023-01-08T11:18:20.301Z,6.30
2023-01-08T11:19:26.455Z,6.07
2023-01-08T11:20:31.983Z,6.20
2023-01-08T11:21:37.063Z,7.10
2023-01-08T11:22:39.082Z,5.78
2023-01-08T11:23:42.051Z,7.10
2023-01-08T11:24:44.891Z,6.88
2023-01-08T11:25:55.428Z,6.10
2023-01-08T11:27:04.018Z,7.43
2023-01-08T11:28:08.254Z,7.30
2023-01-08T11:29:15.935Z,6.78
2023-01-08T11:30:22.254Z,6.40
2023-01-08T11:31:40.214Z,6.00
2023-01-08T11:32:48.087Z,6.85
2023-01-08T11:33:59.657Z,6.97
2023-01-08T11:35:08.016Z,7.10
2023-01-08T11:36:20.580Z,7.05
2023-01-08T11:37:26.218Z,7.40
2023-01-08T11:38:29.167Z,6.60
2023-01-08T11:39:32.427Z,6.78
2023-01-08T11:40:42.334Z,6.35
2023-01-08T11:42:07.930Z,7.13
2023-01-08T11:43:21.110Z,6.38
2023-01-08T11:44:34.397Z,6.70
2023-01-08T11:45:51.389Z,6.57
2023-01-08T11:47:02.444Z,5.97
2023-01-08T11:48:27.091Z,7.00
2023-01-08T11:49:48.263Z,5.05
2023-01-08T11:51:06.454Z,6.13
2023-01-08T11:52:21.047Z,5.78
2023-01-08T11:53:30.509Z,6.45
2023-01-08T11:54:51.888Z,6.45
2023-01-08T11:56:09.060Z,5.38
2023-01-08T11:57:20.518Z,6.43
2023-01-08T11:58:39.370Z,6.10
2023-01-08T11:59:56.070Z,6.70
2023-01-08T12:01:17.202Z,5.70
2023-01-08T12:02:27.565Z,6.90
2023-01-08T12:03:34.833Z,6.55
2023-01-08T12:05:03.793Z,5.93
2023-01-08T12:06:18.911Z,5.80
2023-01-08T12:07:26.366Z,6.35
2023-01-08T12:08:34.064Z,6.47
2023-01-08T12:09:41.116Z,6.00
2023-01-08T12:10:58.874Z,7.22
2023-01-08T12:12:08.880Z,5.90
2023-01-08T12:13:37.445Z,6.00
2023-01-08T12:14:52.519Z,6.45
2023-01-08T12:16:05.062Z,6.47
2023-01-08T12:17:35.844Z,6.82
2023-01-08T12:18:56.850Z,10.05
2023-01-08T12:20:12.584Z,10.38
2023-01-08T12:21:21.574Z,8.93
2023-01-08T12:22:37.125Z,9.50
2023-01-08T12:24:00.016Z,5.60
2023-01-08T12:25:22.588Z,6.78
2023-01-08T12:26:34.072Z,5.80
2023-01-08T12:27:56.844Z,5.60
2023-01-08T12:29:24.896Z,5.90
2023-01-08T12:30:38.588Z,5.05
2023-01-08T12:32:04.412Z,6.97
2023-01-08T12:33:14.732Z,5.93
2023-01-08T12:34:22.880Z,6.80
2023-01-08T12:35:32.023Z,9.80
2023-01-08T12:36:39.064Z,7.97
2023-01-08T12:37:51.770Z,7.10
2023-01-08T12:39:00.593Z,5.20
2023-01-08T12:40:16.169Z,4.65
2023-01-08T12:41:20.663Z,6.18
2023-01-08T12:42:26.171Z,5.18
2023-01-08T12:43:32.970Z,3.83
2023-01-08T12:44:36.769Z,5.82
2023-01-08T12:45:42.822Z,5.43
2023-01-08T12:46:46.097Z,8.23
2023-01-08T12:47:55.175Z,7.53
2023-01-08T12:48:57.833Z,8.70
2023-01-08T12:50:18.973Z,7.72
2023-01-08T12:51:29.882Z,8.88
2023-01-08T12:52:40.220Z,9.73
2023-01-08T12:53:50.590Z,8.90
2023-01-08T12:54:57.631Z,7.97
2023-01-08T12:56:08.086Z,7.93
2023-01-08T12:57:17.629Z,9.00
2023-01-08T12:58:32.750Z,8.68
2023-01-08T12:59:44.094Z,7.38
2023-01-08T13:00:57.702Z,8.73
2023-01-08T13:02:08.824Z,9.00
2023-01-08T13:03:16.136Z,9.10
2023-01-08T13:04:19.772Z,7.65
2023-01-08T13:05:34.536Z,11.55
2023-01-08T13:06:39.679Z,9.27
2023-01-08T13:07:46.421Z,8.48
2023-01-08T13:08:52.012Z,7.70
2023-01-08T13:09:58.765Z,8.50
2023-01-08T13:11:01.650Z,7.85
2023-01-08T13:12:04.870Z,8.23
2023-01-08T13:13:09.989Z,7.72
2023-01-08T13:14:13.946Z,9.45
2023-01-08T13:15:22.250Z,9.00
2023-01-08T13:16:25.389Z,8.35
2023-01-08T13:17:28.577Z,8.32
2023-01-08T13:18:31.636Z,8.77
2023-01-08T13:19:41.642Z,8.57
2023-01-08T13:20:55.342Z,8.52
2023-01-08T13:22:00.678Z,8.90
2023-01-08T13:23:04.214Z,8.75
2023-01-08T13:24:26.771Z,9.13
2023-01-08T13:25:35.217Z,8.38
2023-01-08T13:26:38.176Z,7.95
2023-01-08T13:27:40.179Z,8.43
2023-01-08T13:28:45.407Z,8.05
2023-01-08T13:29:49.389Z,7.70
2023-01-08T13:30:51.892Z,8.82
2023-01-08T13:31:54.950Z,7.45
2023-01-08T13:32:56.894Z,8.40
2023-01-08T13:33:59.855Z,8.32
2023-01-08T13:35:20.132Z,9.05
2023-01-08T13:36:25.972Z,9.18
2023-01-08T13:37:29.333Z,8.95
2023-01-08T13:38:32.254Z,9.63
2023-01-08T13:39:37.217Z,8.05
2023-01-08T13:40:53.368Z,8.77
2023-01-08T13:42:03.472Z,10.38
2023-01-08T13:43:12.339Z,8.05
2023-01-08T13:44:24.562Z,8.15
2023-01-08T13:45:29.113Z,9.55
2023-01-08T13:46:33.853Z,9.60
2023-01-08T13:47:38.236Z,9.57
2023-01-08T13:48:48.533Z,9.15
2023-01-08T13:49:53.541Z,8.98
2023-01-08T13:50:57.008Z,8.30
2023-01-08T13:51:59.973Z,7.05
2023-01-08T13:53:05.374Z,8.25
2023-01-08T13:54:19.911Z,7.95
2023-01-08T13:55:29.244Z,8.45
2023-01-08T13:56:32.132Z,7.40
2023-01-08T13:57:42.464Z,7.68
2023-01-08T13:58:47.800Z,7.43
2023-01-08T13:59:55.175Z,6.45
2023-01-08T14:00:59.315Z,8.00
2023-01-08T14:02:01.838Z,7.00
2023-01-08T14:03:05.111Z,7.20
2023-01-08T14:04:08.529Z,7.47
2023-01-08T14:05:25.355Z,7.03
2023-01-08T14:06:31.350Z,7.38
2023-01-08T14:07:38.659Z,8.15
2023-01-08T14:08:52.175Z,7.78
2023-01-08T14:09:54.385Z,7.47
2023-01-08T14:10:57.557Z,7.30
2023-01-08T14:12:00.191Z,7.20
2023-01-08T14:13:10.411Z,8.10
2023-01-08T14:14:14.404Z,8.35
2023-01-08T14:15:22.817Z,8.35
2023-01-08T14:16:26.392Z,8.05
2023-01-08T14:17:30.990Z,7.80
2023-01-08T14:18:34.504Z,8.15
2023-01-08T14:19:36.456Z,8.00
2023-01-08T14:20:41.526Z,8.73
2023-01-08T14:21:47.344Z,9.20
2023-01-08T14:22:50.306Z,8.15
2023-01-08T14:23:55.011Z,7.38
2023-01-08T14:25:00.969Z,7.30
2023-01-08T14:26:10.400Z,7.88
2023-01-08T14:27:23.027Z,7.63